Time;durP1;ratioP1;P1;durP2;ratioP2;P2;SDS_P1;SDS_P2;PMS_P1;PMS_P2;Temp;Humidity;BMP_temperature;BMP_pressure;BME280_temperature;BME280_humidity;BME280_pressure;Samples;Min_cycle;Max_cycle;Signal;HPM_P1;HPM_P2
2022/05/15 00:02:14;;;;;;;3.70;1.90;;;;;;;;;;5054874;28;20365;-86
2022/05/15 00:04:40;;;;;;;2.75;2.10;;;;;;;;;;5037041;28;20392;-86
2022/05/15 00:07:07;;;;;;;1.70;1.60;;;;;;;;;;5039695;28;20399;-86
2022/05/15 00:09:33;;;;;;;3.63;1.90;;;;;;;;;;5035316;28;20470;-86
2022/05/15 00:11:59;;;;;;;3.00;1.80;;;;;;;;;;5035067;28;20744;-86
2022/05/15 00:14:25;;;;;;;2.08;1.50;;;;;;;;;;5034699;28;20425;-85
2022/05/15 00:16:51;;;;;;;2.67;1.63;;;;;;;;;;5034644;28;20372;-86
2022/05/15 00:19:17;;;;;;;1.73;1.42;;;;;;;;;;5034212;28;20458;-86
2022/05/15 00:21:43;;;;;;;1.98;1.60;;;;;;;;;;5034926;28;20383;-86
2022/05/15 00:24:09;;;;;;;2.03;1.63;;;;;;;;;;5036908;28;20509;-86
2022/05/15 00:26:35;;;;;;;2.15;1.50;;;;;;;;;;5034380;28;20410;-86
2022/05/15 00:29:01;;;;;;;3.05;1.55;;;;;;;;;;5034361;28;20443;-85
2022/05/15 00:31:28;;;;;;;2.30;1.60;;;;;;;;;;5034312;28;20482;-86
2022/05/15 00:33:54;;;;;;;1.52;1.40;;;;;;;;;;5060381;28;20421;-86
2022/05/15 00:36:20;;;;;;;2.90;1.40;;;;;;;;;;5073874;28;20430;-86
2022/05/15 00:38:46;;;;;;;2.08;1.45;;;;;;;;;;5074288;28;20741;-86
2022/05/15 00:41:12;;;;;;;2.50;1.80;;;;;;;;;;5074147;28;20379;-86
2022/05/15 00:43:41;;;;;;;2.22;1.70;;;;;;;;;;5073482;28;20372;-86
2022/05/15 00:46:09;;;;;;;2.78;1.63;;;;;;;;;;5074158;28;20376;-86
2022/05/15 00:48:35;;;;;;;3.93;1.63;;;;;;;;;;5073989;28;20450;-86
2022/05/15 00:51:04;;;;;;;2.58;1.60;;;;;;;;;;5073924;28;20382;-86
2022/05/15 00:53:30;;;;;;;2.38;1.55;;;;;;;;;;5073404;28;20372;-86
2022/05/15 00:55:59;;;;;;;1.60;1.37;;;;;;;;;;5073924;28;20426;-86
2022/05/15 00:58:29;;;;;;;1.80;1.30;;;;;;;;;;5073874;28;20455;-86
2022/05/15 01:00:56;;;;;;;1.40;1.30;;;;;;;;;;5073838;28;20869;-86
2022/05/15 01:03:22;;;;;;;1.67;1.40;;;;;;;;;;5073131;28;20379;-86
2022/05/15 01:05:52;;;;;;;2.10;1.42;;;;;;;;;;5073694;28;20390;-86
2022/05/15 01:08:18;;;;;;;2.50;1.45;;;;;;;;;;5055685;28;20912;-85
2022/05/15 01:10:46;;;;;;;2.88;1.40;;;;;;;;;;5073668;28;20383;-86
2022/05/15 01:13:14;;;;;;;3.22;1.60;;;;;;;;;;5072922;28;20410;-86
2022/05/15 01:15:40;;;;;;;3.15;1.30;;;;;;;;;;5073830;28;20455;-86
2022/05/15 01:18:08;;;;;;;1.60;1.27;;;;;;;;;;5073520;28;20391;-85
2022/05/15 01:20:34;;;;;;;3.00;1.55;;;;;;;;;;5072767;28;20432;-86
2022/05/15 01:23:00;;;;;;;2.63;1.50;;;;;;;;;;5073022;28;20469;-86
2022/05/15 01:25:29;;;;;;;2.58;1.45;;;;;;;;;;5073366;28;20517;-86
2022/05/15 01:28:14;;;;;;;1.42;1.30;;;;;;;;;;5073251;28;20414;-86
2022/05/15 01:30:42;;;;;;;2.35;1.20;;;;;;;;;;5072885;28;20387;-86
2022/05/15 01:33:09;;;;;;;3.83;1.23;;;;;;;;;;5072702;28;20454;-86
2022/05/15 01:35:35;;;;;;;1.77;1.40;;;;;;;;;;5073170;28;20379;-85
2022/05/15 01:38:01;;;;;;;3.23;1.50;;;;;;;;;;5073659;28;20776;-86
2022/05/15 01:40:27;;;;;;;2.00;1.15;;;;;;;;;;5072670;28;20384;-85
2022/05/15 01:42:53;;;;;;;2.97;1.48;;;;;;;;;;5072958;28;20379;-86
2022/05/15 01:45:19;;;;;;;1.90;1.30;;;;;;;;;;5072918;28;20391;-86
2022/05/15 01:47:45;;;;;;;2.73;1.20;;;;;;;;;;5072964;28;20490;-85
2022/05/15 01:50:13;;;;;;;2.70;1.20;;;;;;;;;;5072394;28;20371;-88
2022/05/15 01:52:39;;;;;;;1.48;1.08;;;;;;;;;;5072000;28;20376;-86
2022/05/15 01:55:05;;;;;;;1.20;1.00;;;;;;;;;;5070927;28;20715;-85
2022/05/15 01:57:31;;;;;;;2.10;1.20;;;;;;;;;;5072384;28;20497;-86
2022/05/15 01:59:57;;;;;;;2.00;1.23;;;;;;;;;;5072582;28;20884;-86
2022/05/15 02:02:23;;;;;;;1.52;1.00;;;;;;;;;;5072639;28;20391;-86
2022/05/15 02:04:49;;;;;;;2.40;1.17;;;;;;;;;;5072752;28;20383;-86
2022/05/15 02:07:15;;;;;;;1.85;1.10;;;;;;;;;;5072098;28;20853;-86
2022/05/15 02:09:41;;;;;;;4.30;1.30;;;;;;;;;;5072373;28;20522;-86
2022/05/15 02:12:08;;;;;;;2.50;1.20;;;;;;;;;;5057907;28;20390;-86
2022/05/15 02:14:34;;;;;;;1.77;1.30;;;;;;;;;;5032704;28;20387;-86
2022/05/15 02:17:00;;;;;;;1.52;1.00;;;;;;;;;;5032324;28;20383;-86
2022/05/15 02:19:26;;;;;;;0.90;0.90;;;;;;;;;;5032339;28;20390;-86
2022/05/15 02:21:52;;;;;;;2.42;1.10;;;;;;;;;;5032691;28;20470;-86
2022/05/15 02:24:18;;;;;;;2.20;1.20;;;;;;;;;;5032317;28;20380;-86
2022/05/15 02:26:44;;;;;;;1.50;1.02;;;;;;;;;;5032220;28;20379;-86
2022/05/15 02:29:10;;;;;;;2.10;1.30;;;;;;;;;;5034606;28;20493;-87
2022/05/15 02:31:37;;;;;;;2.83;1.10;;;;;;;;;;5031947;28;20387;-86
2022/05/15 02:34:03;;;;;;;1.80;1.00;;;;;;;;;;5032201;28;20475;-86
2022/05/15 02:36:29;;;;;;;1.63;1.10;;;;;;;;;;5053517;28;20377;-86
2022/05/15 02:38:55;;;;;;;2.70;1.20;;;;;;;;;;5052195;28;20389;-86
2022/05/15 02:41:21;;;;;;;2.00;1.20;;;;;;;;;;5052471;28;20476;-86
2022/05/15 02:43:47;;;;;;;1.97;1.00;;;;;;;;;;5051831;28;20491;-86
2022/05/15 02:46:13;;;;;;;1.80;1.27;;;;;;;;;;5052064;28;20859;-86
2022/05/15 02:51:24;;;;;;;2.88;1.20;;;;;;;;;;5051792;28;20384;-86
2022/05/15 02:53:50;;;;;;;1.55;1.00;;;;;;;;;;5052247;28;20460;-86
2022/05/15 02:56:17;;;;;;;1.77;1.10;;;;;;;;;;5034109;28;20393;-87
2022/05/15 02:58:44;;;;;;;2.55;1.20;;;;;;;;;;5051992;28;20532;-86
2022/05/15 03:01:10;;;;;;;1.83;1.00;;;;;;;;;;5051820;28;20399;-86
2022/05/15 03:03:36;;;;;;;1.35;1.10;;;;;;;;;;5051708;28;20381;-86
2022/05/15 03:06:03;;;;;;;1.35;1.08;;;;;;;;;;5051850;28;20835;-87
2022/05/15 03:08:29;;;;;;;1.85;1.13;;;;;;;;;;5051804;28;20428;-86
2022/05/15 03:10:55;;;;;;;1.50;1.10;;;;;;;;;;5051507;28;20465;-87
2022/05/15 03:13:21;;;;;;;2.53;1.37;;;;;;;;;;5051859;28;20838;-86
2022/05/15 03:15:47;;;;;;;1.40;1.05;;;;;;;;;;5051788;28;20370;-86
2022/05/15 03:18:13;;;;;;;1.45;1.13;;;;;;;;;;5051700;28;20777;-86
2022/05/15 03:20:39;;;;;;;1.73;1.20;;;;;;;;;;5052007;28;20458;-86
2022/05/15 03:23:05;;;;;;;1.65;1.13;;;;;;;;;;5051588;28;20854;-86
2022/05/15 03:25:33;;;;;;;1.80;1.17;;;;;;;;;;5051734;28;20743;-86
2022/05/15 03:27:59;;;;;;;1.48;1.00;;;;;;;;;;5051665;28;20397;-86
2022/05/15 03:30:25;;;;;;;2.47;1.10;;;;;;;;;;5051196;28;20408;-86
2022/05/15 03:32:52;;;;;;;1.65;1.20;;;;;;;;;;5052021;28;20782;-86
2022/05/15 03:35:18;;;;;;;2.33;1.20;;;;;;;;;;5051617;28;20927;-87
2022/05/15 03:37:44;;;;;;;3.38;1.27;;;;;;;;;;5051314;28;20420;-86
2022/05/15 03:40:11;;;;;;;2.42;1.48;;;;;;;;;;5051297;28;20413;-87
2022/05/15 03:42:37;;;;;;;1.83;1.23;;;;;;;;;;5052810;28;20385;-86
2022/05/15 03:45:04;;;;;;;2.17;1.20;;;;;;;;;;5055444;28;20420;-86
2022/05/15 03:47:30;;;;;;;2.13;1.40;;;;;;;;;;5057676;28;20393;-86
2022/05/15 03:50:01;;;;;;;1.35;1.13;;;;;;;;;;5054749;28;20851;-86
2022/05/15 03:52:27;;;;;;;2.30;1.20;;;;;;;;;;5055010;28;20377;-86
2022/05/15 03:54:53;;;;;;;2.72;1.33;;;;;;;;;;5054514;28;20427;-87
2022/05/15 03:57:19;;;;;;;1.73;1.05;;;;;;;;;;5055137;28;20377;-86
2022/05/15 03:59:46;;;;;;;1.30;1.20;;;;;;;;;;5055265;28;20468;-87
2022/05/15 04:02:12;;;;;;;2.42;1.30;;;;;;;;;;5054855;28;20427;-86
2022/05/15 04:04:38;;;;;;;2.70;1.23;;;;;;;;;;5054981;28;20386;-86
2022/05/15 04:07:05;;;;;;;3.10;1.23;;;;;;;;;;5054436;28;20441;-86
2022/05/15 04:09:32;;;;;;;2.28;1.30;;;;;;;;;;5054622;28;20406;-87
2022/05/15 04:11:58;;;;;;;2.50;1.50;;;;;;;;;;5054194;28;20384;-85
2022/05/15 04:14:24;;;;;;;4.60;1.50;;;;;;;;;;5049527;28;20384;-86
2022/05/15 04:16:50;;;;;;;2.75;1.30;;;;;;;;;;5034990;28;20398;-86
2022/05/15 04:19:16;;;;;;;2.23;1.47;;;;;;;;;;5034709;28;20391;-86
2022/05/15 04:21:42;;;;;;;1.27;1.10;;;;;;;;;;5034604;28;20410;-86
2022/05/15 04:24:10;;;;;;;2.53;1.30;;;;;;;;;;5049560;28;20854;-86
2022/05/15 04:26:36;;;;;;;3.47;1.27;;;;;;;;;;5054039;28;20388;-86
2022/05/15 04:29:03;;;;;;;1.25;1.10;;;;;;;;;;5053764;28;20413;-86
2022/05/15 04:31:29;;;;;;;1.53;1.20;;;;;;;;;;5056838;28;20382;-86
2022/05/15 04:33:55;;;;;;;1.80;1.40;;;;;;;;;;5054335;28;20374;-85
2022/05/15 04:36:21;;;;;;;2.33;1.52;;;;;;;;;;5054352;28;20464;-86
2022/05/15 04:38:47;;;;;;;1.77;1.48;;;;;;;;;;5036333;28;20915;-87
2022/05/15 04:41:13;;;;;;;3.90;1.60;;;;;;;;;;5054312;28;20393;-86
2022/05/15 04:43:39;;;;;;;2.72;1.65;;;;;;;;;;5054206;28;20912;-86
2022/05/15 04:46:07;;;;;;;3.10;1.88;;;;;;;;;;5053182;28;20400;-86
2022/05/15 04:48:36;;;;;;;3.03;1.75;;;;;;;;;;5054006;28;20878;-86
2022/05/15 04:51:03;;;;;;;2.65;1.77;;;;;;;;;;5053935;28;20382;-86
2022/05/15 04:53:30;;;;;;;2.08;1.75;;;;;;;;;;5053613;28;20747;-87
2022/05/15 04:55:56;;;;;;;3.92;1.90;;;;;;;;;;5053737;28;20376;-87
2022/05/15 04:58:22;;;;;;;3.40;1.73;;;;;;;;;;5053900;28;20377;-87
2022/05/15 05:00:49;;;;;;;1.92;1.38;;;;;;;;;;5053195;28;20427;-87
2022/05/15 05:03:15;;;;;;;1.80;1.30;;;;;;;;;;5053265;28;20388;-86
2022/05/15 05:05:42;;;;;;;2.47;1.42;;;;;;;;;;5053853;28;20385;-86
2022/05/15 05:08:09;;;;;;;4.00;1.35;;;;;;;;;;5053628;28;20448;-86
2022/05/15 05:10:35;;;;;;;2.95;1.40;;;;;;;;;;5053685;28;20996;-89
2022/05/15 05:13:01;;;;;;;2.35;1.60;;;;;;;;;;5053853;28;20746;-89
2022/05/15 05:15:27;;;;;;;2.00;1.30;;;;;;;;;;5053974;28;20396;-87
2022/05/15 05:17:53;;;;;;;1.38;1.20;;;;;;;;;;5053053;28;20389;-87
2022/05/15 05:20:19;;;;;;;1.40;1.20;;;;;;;;;;5053505;28;20385;-87
2022/05/15 05:22:45;;;;;;;1.90;1.40;;;;;;;;;;5053178;28;20385;-87
2022/05/15 05:25:12;;;;;;;2.00;1.55;;;;;;;;;;5053516;28;20392;-87
2022/05/15 05:27:38;;;;;;;2.80;1.83;;;;;;;;;;5053191;28;20489;-87
2022/05/15 05:30:08;;;;;;;2.60;1.48;;;;;;;;;;5053328;28;20401;-87
2022/05/15 05:32:34;;;;;;;3.25;1.50;;;;;;;;;;5053315;28;20389;-87
2022/05/15 05:35:00;;;;;;;1.42;1.33;;;;;;;;;;5052834;28;20389;-86
2022/05/15 05:37:26;;;;;;;2.90;1.58;;;;;;;;;;5053512;28;20416;-87
2022/05/15 05:39:52;;;;;;;3.77;1.50;;;;;;;;;;5052759;28;20401;-87
2022/05/15 05:42:18;;;;;;;1.88;1.40;;;;;;;;;;5055795;28;20374;-87
2022/05/15 05:44:44;;;;;;;3.00;1.50;;;;;;;;;;5053438;28;20392;-87
2022/05/15 05:47:10;;;;;;;2.30;1.52;;;;;;;;;;5053003;28;20519;-87
2022/05/15 05:49:36;;;;;;;2.80;1.40;;;;;;;;;;5052956;28;20397;-87
2022/05/15 05:52:02;;;;;;;6.63;1.60;;;;;;;;;;5052934;28;20382;-87
2022/05/15 05:54:28;;;;;;;2.65;1.60;;;;;;;;;;5053056;28;20370;-87
2022/05/15 05:56:54;;;;;;;4.88;1.63;;;;;;;;;;5052767;28;20369;-86
2022/05/15 05:59:20;;;;;;;2.10;1.50;;;;;;;;;;5052517;28;20866;-87
2022/05/15 06:01:46;;;;;;;3.17;1.40;;;;;;;;;;5052820;28;20428;-87
2022/05/15 06:06:57;;;;;;;2.50;1.53;;;;;;;;;;5052866;28;20880;-87
2022/05/15 06:09:23;;;;;;;2.20;1.45;;;;;;;;;;5053208;28;20417;-87
2022/05/15 06:11:49;;;;;;;2.40;1.52;;;;;;;;;;5052647;28;20373;-87
2022/05/15 06:14:15;;;;;;;2.25;1.50;;;;;;;;;;5052020;28;20380;-87
2022/05/15 06:16:41;;;;;;;2.10;1.42;;;;;;;;;;5052557;28;20369;-88
2022/05/15 06:19:08;;;;;;;2.67;1.60;;;;;;;;;;5052432;28;20889;-87
2022/05/15 06:21:34;;;;;;;3.45;1.50;;;;;;;;;;5036152;28;20406;-87
2022/05/15 06:24:00;;;;;;;3.80;1.52;;;;;;;;;;5032630;28;20387;-87
2022/05/15 06:26:26;;;;;;;4.00;1.48;;;;;;;;;;5032500;28;20888;-87
2022/05/15 06:28:52;;;;;;;2.90;1.80;;;;;;;;;;5014297;28;20506;-87
2022/05/15 06:31:18;;;;;;;3.08;1.60;;;;;;;;;;5035513;28;20403;-87
2022/05/15 06:33:44;;;;;;;3.45;1.70;;;;;;;;;;5054533;28;20874;-88
2022/05/15 06:36:10;;;;;;;2.78;1.65;;;;;;;;;;5052319;28;20382;-87
2022/05/15 06:38:36;;;;;;;2.08;1.42;;;;;;;;;;5052186;28;20881;-87
2022/05/15 06:41:02;;;;;;;3.42;1.70;;;;;;;;;;5052233;28;20385;-88
2022/05/15 06:43:28;;;;;;;3.90;1.80;;;;;;;;;;5052409;28;20402;-87
2022/05/15 06:45:54;;;;;;;2.97;1.70;;;;;;;;;;5051735;28;20851;-88
2022/05/15 06:48:19;;;;;;;3.10;1.88;;;;;;;;;;5051998;28;20512;-88
2022/05/15 06:50:49;;;;;;;3.70;1.70;;;;;;;;;;5052197;28;20381;-87
2022/05/15 06:53:15;;;;;;;3.10;2.08;;;;;;;;;;5052459;28;20922;-88
2022/05/15 06:57:28;;;;;;;3.40;2.10;;;;;;;;;;5052230;28;20416;-89
2022/05/15 06:58:27;;;;;;;2.70;2.15;;;;;;;;;;5051937;28;20762;-88
2022/05/15 07:00:53;;;;;;;2.97;1.70;;;;;;;;;;5052088;28;20404;-88
2022/05/15 07:03:19;;;;;;;2.95;1.60;;;;;;;;;;5052071;28;20394;-88
2022/05/15 07:05:45;;;;;;;2.55;1.70;;;;;;;;;;5052172;28;20794;-88
2022/05/15 07:08:15;;;;;;;4.03;1.98;;;;;;;;;;5050642;28;21263;-88
2022/05/15 07:10:41;;;;;;;2.53;1.60;;;;;;;;;;5051915;28;20794;-87
2022/05/15 07:13:07;;;;;;;2.37;1.83;;;;;;;;;;5052339;28;21073;-87
2022/05/15 07:15:33;;;;;;;4.32;2.08;;;;;;;;;;5051874;28;20755;-88
2022/05/15 07:17:59;;;;;;;2.38;1.70;;;;;;;;;;5053665;28;20456;-87
2022/05/15 07:20:25;;;;;;;3.33;1.88;;;;;;;;;;5055288;28;20383;-88
2022/05/15 07:22:51;;;;;;;5.55;1.80;;;;;;;;;;5055829;28;20842;-88
2022/05/15 07:25:17;;;;;;;3.83;1.90;;;;;;;;;;5055296;28;20377;-87
2022/05/15 07:27:43;;;;;;;3.13;2.07;;;;;;;;;;5055700;28;20773;-88
2022/05/15 07:30:10;;;;;;;3.42;1.90;;;;;;;;;;5055349;28;20488;-87
2022/05/15 07:32:36;;;;;;;2.90;1.92;;;;;;;;;;5055451;28;20385;-87
2022/05/15 07:35:02;;;;;;;2.33;1.92;;;;;;;;;;5055532;28;20461;-88
2022/05/15 07:37:28;;;;;;;2.00;1.80;;;;;;;;;;5059540;28;20434;-88
2022/05/15 07:39:54;;;;;;;3.78;2.10;;;;;;;;;;5055363;28;20374;-87
2022/05/15 07:42:20;;;;;;;3.47;2.00;;;;;;;;;;5055042;28;20407;-85
2022/05/15 07:44:47;;;;;;;2.78;2.10;;;;;;;;;;5054881;28;20382;-86
2022/05/15 07:47:13;;;;;;;3.43;2.40;;;;;;;;;;5055536;28;20404;-88
2022/05/15 07:49:40;;;;;;;5.70;2.17;;;;;;;;;;5055171;28;20402;-88
2022/05/15 07:52:06;;;;;;;3.40;2.05;;;;;;;;;;5055017;28;20366;-86
2022/05/15 07:54:33;;;;;;;3.72;2.00;;;;;;;;;;5054862;28;20378;-87
2022/05/15 07:56:59;;;;;;;2.80;2.05;;;;;;;;;;5054852;28;20380;-87
2022/05/15 07:59:25;;;;;;;2.20;1.97;;;;;;;;;;5054714;28;20462;-87
2022/05/15 08:01:54;;;;;;;6.07;2.00;;;;;;;;;;5054676;28;20392;-87
2022/05/15 08:04:20;;;;;;;3.22;2.28;;;;;;;;;;5054347;28;20466;-87
2022/05/15 08:09:30;;;;;;;3.88;2.10;;;;;;;;;;5054596;28;20411;-86
2022/05/15 08:11:56;;;;;;;2.55;1.90;;;;;;;;;;5054832;28;20381;-86
2022/05/15 08:14:23;;;;;;;3.80;2.10;;;;;;;;;;5054285;28;20862;-86
2022/05/15 08:16:49;;;;;;;2.55;1.75;;;;;;;;;;5054753;28;20385;-86
2022/05/15 08:24:45;;;;;;;3.72;2.70;;;;;;;;;;5054904;28;20377;-87
2022/05/15 08:27:11;;;;;;;3.33;2.80;;;;;;;;;;5054497;28;20873;-86
2022/05/15 08:29:40;;;;;;;4.03;2.75;;;;;;;;;;5038671;28;20876;-86
2022/05/15 08:32:07;;;;;;;3.40;2.70;;;;;;;;;;5033887;28;20878;-87
2022/05/15 08:34:34;;;;;;;3.42;2.55;;;;;;;;;;5034433;28;20919;-86
2022/05/15 08:37:03;;;;;;;2.53;2.30;;;;;;;;;;5034605;28;20391;-87
2022/05/15 08:39:29;;;;;;;2.97;2.60;;;;;;;;;;5036893;28;20429;-86
2022/05/15 08:42:05;;;;;;;3.42;2.63;;;;;;;;;;5056610;28;20381;-86
2022/05/15 08:44:33;;;;;;;2.72;2.38;;;;;;;;;;5054148;28;20400;-86
2022/05/15 08:46:59;;;;;;;3.28;2.50;;;;;;;;;;5054507;28;20385;-86
2022/05/15 08:49:34;;;;;;;3.15;2.50;;;;;;;;;;5053745;28;20419;-87
2022/05/15 08:52:00;;;;;;;4.10;2.50;;;;;;;;;;5053941;28;20408;-86
2022/05/15 08:54:26;;;;;;;4.18;2.63;;;;;;;;;;5054067;28;20784;-87
2022/05/15 08:56:52;;;;;;;3.58;2.42;;;;;;;;;;5053869;28;20452;-87
2022/05/15 08:59:21;;;;;;;4.25;2.40;;;;;;;;;;5053516;28;20420;-86
2022/05/15 09:01:48;;;;;;;3.80;2.40;;;;;;;;;;5054057;28;20451;-86
2022/05/15 09:04:14;;;;;;;3.10;2.40;;;;;;;;;;5053801;28;20385;-87
2022/05/15 09:06:48;;;;;;;3.90;2.58;;;;;;;;;;5053294;28;20385;-87
2022/05/15 09:09:24;;;;;;;2.60;2.38;;;;;;;;;;5053961;28;20405;-86
2022/05/15 09:11:55;;;;;;;2.88;2.13;;;;;;;;;;5053733;28;20885;-86
2022/05/15 09:14:40;;;;;;;3.00;2.20;;;;;;;;;;5053192;28;20862;-87
2022/05/15 09:17:27;;;;;;;4.00;2.60;;;;;;;;;;5053387;28;20373;-87
2022/05/15 09:19:55;;;;;;;2.40;2.20;;;;;;;;;;5053632;28;20790;-87
2022/05/15 09:22:21;;;;;;;3.30;2.30;;;;;;;;;;5053424;28;20512;-87
2022/05/15 09:24:51;;;;;;;3.45;2.30;;;;;;;;;;5053496;28;20377;-87
2022/05/15 09:27:25;;;;;;;2.70;2.13;;;;;;;;;;5053081;28;20392;-88
2022/05/15 09:29:52;;;;;;;2.50;2.30;;;;;;;;;;5052945;28;20499;-87
2022/05/15 09:32:30;;;;;;;3.40;2.33;;;;;;;;;;5053061;28;20394;-87
2022/05/15 09:35:01;;;;;;;2.90;2.10;;;;;;;;;;5053040;28;20384;-87
2022/05/15 09:40:37;;;;;;;3.23;2.50;;;;;;;;;;5055563;28;20377;-86
2022/05/15 09:45:53;;;;;;;2.47;2.05;;;;;;;;;;5053168;28;20419;-86
2022/05/15 09:48:22;;;;;;;2.30;1.95;;;;;;;;;;5052691;28;20411;-87
2022/05/15 09:50:48;;;;;;;2.95;2.30;;;;;;;;;;5052449;28;20381;-86
2022/05/15 09:53:20;;;;;;;2.38;2.00;;;;;;;;;;5053048;28;20788;-87
2022/05/15 09:56:13;;;;;;;3.35;2.15;;;;;;;;;;5053225;28;20858;-88
2022/05/15 09:58:56;;;;;;;3.05;1.83;;;;;;;;;;5022694;28;20393;-87
2022/05/15 10:01:34;;;;;;;2.97;2.30;;;;;;;;;;5052458;28;20391;-86
2022/05/15 10:04:01;;;;;;;3.57;2.27;;;;;;;;;;5052714;28;20392;-87
2022/05/15 10:06:28;;;;;;;3.20;2.28;;;;;;;;;;5052638;28;20394;-87
2022/05/15 10:09:14;;;;;;;2.92;2.20;;;;;;;;;;5052407;28;20409;-87
2022/05/15 10:11:42;;;;;;;2.92;1.83;;;;;;;;;;5052303;28;20901;-87
2022/05/15 10:14:13;;;;;;;3.15;2.40;;;;;;;;;;5052469;28;20897;-87
2022/05/15 10:16:48;;;;;;;3.25;1.95;;;;;;;;;;5052712;28;20381;-87
2022/05/15 10:19:14;;;;;;;3.72;2.45;;;;;;;;;;5052176;28;20396;-87
2022/05/15 10:21:42;;;;;;;3.42;2.10;;;;;;;;;;5050945;28;20385;-88
2022/05/15 10:24:13;;;;;;;2.30;2.10;;;;;;;;;;5033700;28;20402;-86
2022/05/15 10:26:48;;;;;;;2.80;2.30;;;;;;;;;;5032127;28;20382;-87
2022/05/15 10:29:18;;;;;;;2.40;2.10;;;;;;;;;;5032832;28;20565;-88
2022/05/15 10:31:49;;;;;;;3.47;2.20;;;;;;;;;;5032360;28;20529;-86
2022/05/15 10:34:18;;;;;;;3.28;2.13;;;;;;;;;;5034498;28;20497;-87
2022/05/15 10:37:11;;;;;;;4.18;2.10;;;;;;;;;;5031849;28;20390;-87
2022/05/15 10:39:55;;;;;;;2.38;1.77;;;;;;;;;;5032365;28;20855;-87
2022/05/15 10:42:27;;;;;;;5.70;2.58;;;;;;;;;;5032295;28;20391;-87
2022/05/15 10:45:04;;;;;;;3.90;2.22;;;;;;;;;;5043295;28;20374;-86
2022/05/15 10:47:50;;;;;;;2.92;2.30;;;;;;;;;;5052156;28;20430;-86
2022/05/15 10:50:19;;;;;;;3.47;2.30;;;;;;;;;;5050863;28;20937;-87
2022/05/15 10:52:57;;;;;;;2.42;2.03;;;;;;;;;;5053825;28;20397;-86
2022/05/15 10:58:10;;;;;;;3.13;2.00;;;;;;;;;;5056230;28;20383;-87
2022/05/15 11:00:37;;;;;;;2.28;2.08;;;;;;;;;;5055923;28;20369;-87
2022/05/15 11:03:22;;;;;;;2.55;1.77;;;;;;;;;;5056025;28;20377;-87
2022/05/15 11:05:48;;;;;;;3.80;1.85;;;;;;;;;;5056034;28;20373;-86
2022/05/15 11:08:20;;;;;;;3.38;2.08;;;;;;;;;;5055757;28;20878;-86
2022/05/15 11:11:16;;;;;;;2.50;2.00;;;;;;;;;;5056085;28;20742;-87
2022/05/15 11:13:55;;;;;;;2.90;2.20;;;;;;;;;;5039243;28;20905;-87
2022/05/15 11:16:41;;;;;;;2.10;1.90;;;;;;;;;;5056934;28;20377;-87
2022/05/15 11:19:08;;;;;;;2.30;1.90;;;;;;;;;;5055554;28;20789;-87
2022/05/15 11:21:39;;;;;;;2.33;1.90;;;;;;;;;;5055535;28;20854;-88
2022/05/15 11:24:12;;;;;;;3.28;1.90;;;;;;;;;;5055784;28;20417;-87
2022/05/15 11:26:41;;;;;;;2.20;1.90;;;;;;;;;;5055519;28;20447;-87
2022/05/15 11:29:09;;;;;;;2.42;2.15;;;;;;;;;;5055577;28;20405;-88
2022/05/15 11:31:38;;;;;;;4.00;2.20;;;;;;;;;;5055435;28;20546;-87
2022/05/15 11:34:07;;;;;;;2.58;2.08;;;;;;;;;;5055212;28;20377;-87
2022/05/15 11:36:35;;;;;;;3.20;2.00;;;;;;;;;;5057933;28;20392;-87
2022/05/15 11:39:13;;;;;;;2.30;2.10;;;;;;;;;;5055298;28;20431;-87
2022/05/15 11:41:39;;;;;;;3.15;1.92;;;;;;;;;;5055077;28;20854;-88
2022/05/15 11:44:10;;;;;;;2.88;1.83;;;;;;;;;;5055541;28;20456;-87
2022/05/15 11:46:48;;;;;;;2.47;1.90;;;;;;;;;;5055224;28;20919;-87
2022/05/15 11:49:22;;;;;;;4.28;2.28;;;;;;;;;;5054676;28;20444;-88
2022/05/15 11:52:14;;;;;;;2.55;2.05;;;;;;;;;;5055178;28;20400;-88
2022/05/15 11:54:41;;;;;;;3.55;2.10;;;;;;;;;;5055223;28;20387;-88
2022/05/15 11:57:09;;;;;;;2.70;1.90;;;;;;;;;;5055015;28;20942;-87
2022/05/15 11:59:50;;;;;;;2.78;2.15;;;;;;;;;;5054904;28;20734;-88
2022/05/15 12:02:31;;;;;;;3.03;2.05;;;;;;;;;;5055072;28;20385;-87
2022/05/15 12:05:09;;;;;;;2.30;2.10;;;;;;;;;;5054320;28;20377;-87
2022/05/15 12:07:53;;;;;;;3.40;2.10;;;;;;;;;;5054958;28;20365;-88
2022/05/15 12:10:42;;;;;;;4.47;2.10;;;;;;;;;;5054965;28;20416;-87
2022/05/15 12:13:13;;;;;;;2.70;2.10;;;;;;;;;;5054623;28;20443;-87
2022/05/15 12:15:38;;;;;;;2.65;2.00;;;;;;;;;;5054128;28;20851;-88
2022/05/15 12:18:21;;;;;;;3.38;1.80;;;;;;;;;;5055277;28;20378;-87
2022/05/15 12:20:50;;;;;;;2.03;1.83;;;;;;;;;;5044128;28;20375;-87
2022/05/15 12:23:17;;;;;;;2.30;2.00;;;;;;;;;;5034915;28;20386;-86
2022/05/15 12:25:58;;;;;;;3.67;1.83;;;;;;;;;;5034140;28;20382;-87
2022/05/15 12:28:53;;;;;;;2.38;2.17;;;;;;;;;;5034626;28;20438;-88
2022/05/15 12:31:21;;;;;;;2.00;1.90;;;;;;;;;;5027411;28;20423;-87
2022/05/15 12:33:49;;;;;;;2.85;2.10;;;;;;;;;;5034027;28;20380;-87
2022/05/15 12:36:29;;;;;;;3.30;2.17;;;;;;;;;;5034529;28;20462;-88
2022/05/15 12:38:55;;;;;;;3.78;2.03;;;;;;;;;;5041534;28;20414;-88
2022/05/15 12:41:24;;;;;;;2.20;2.00;;;;;;;;;;5036123;28;20837;-88
2022/05/15 12:43:51;;;;;;;2.33;1.85;;;;;;;;;;5051968;28;20487;-88
2022/05/15 12:46:27;;;;;;;3.03;1.85;;;;;;;;;;5036209;28;20383;-88
2022/05/15 12:48:53;;;;;;;2.88;2.00;;;;;;;;;;5034264;28;20410;-88
2022/05/15 12:51:30;;;;;;;2.85;1.92;;;;;;;;;;5033645;28;20379;-88
2022/05/15 12:53:57;;;;;;;2.08;1.88;;;;;;;;;;5034179;28;20826;-88
2022/05/15 12:56:30;;;;;;;2.20;2.00;;;;;;;;;;5034258;28;20379;-88
2022/05/15 12:58:59;;;;;;;2.37;2.00;;;;;;;;;;5034366;28;20375;-89
2022/05/15 13:01:27;;;;;;;2.78;2.00;;;;;;;;;;5033620;28;20378;-88
2022/05/15 13:03:56;;;;;;;2.78;1.85;;;;;;;;;;5034130;28;20793;-87
2022/05/15 13:06:28;;;;;;;2.13;1.50;;;;;;;;;;5034081;28;20389;-88
2022/05/15 13:08:57;;;;;;;2.63;1.80;;;;;;;;;;5034030;28;20900;-87
2022/05/15 13:11:26;;;;;;;2.90;1.50;;;;;;;;;;5033452;28;20379;-88
2022/05/15 13:13:54;;;;;;;3.15;1.60;;;;;;;;;;5033735;28;20375;-88
2022/05/15 13:16:21;;;;;;;2.03;1.58;;;;;;;;;;5033072;28;20465;-88
2022/05/15 13:18:49;;;;;;;2.72;2.08;;;;;;;;;;5015693;28;20848;-88
2022/05/15 13:21:21;;;;;;;4.55;4.15;;;;;;;;;;5033185;28;20391;-89
2022/05/15 13:23:48;;;;;;;3.95;3.00;;;;;;;;;;5033852;28;20379;-88
2022/05/15 13:26:18;;;;;;;2.93;1.90;;;;;;;;;;5033829;28;20409;-87
2022/05/15 13:28:45;;;;;;;3.73;2.20;;;;;;;;;;5032865;28;20922;-87
2022/05/15 13:31:13;;;;;;;2.53;1.75;;;;;;;;;;5038508;28;20388;-88
2022/05/15 13:33:42;;;;;;;2.83;1.70;;;;;;;;;;5053664;28;20373;-87
2022/05/15 13:36:13;;;;;;;2.25;1.88;;;;;;;;;;5053129;28;20440;-87
2022/05/15 13:44:13;;;;;;;1.98;1.77;;;;;;;;;;5053213;28;20389;-86
2022/05/15 13:46:43;;;;;;;4.68;2.28;;;;;;;;;;5052646;28;20439;-87
2022/05/15 13:49:12;;;;;;;2.90;2.50;;;;;;;;;;5052624;28;20406;-87
2022/05/15 13:51:38;;;;;;;3.08;2.10;;;;;;;;;;5053192;28;20378;-88
2022/05/15 13:54:09;;;;;;;3.22;1.90;;;;;;;;;;5053021;28;20416;-87
2022/05/15 13:56:35;;;;;;;4.15;2.10;;;;;;;;;;5052378;28;20412;-86
2022/05/15 13:59:01;;;;;;;2.35;2.00;;;;;;;;;;5053113;28;20828;-87
2022/05/15 14:01:34;;;;;;;3.05;2.20;;;;;;;;;;5052790;28;20417;-86
2022/05/15 14:04:20;;;;;;;2.17;1.95;;;;;;;;;;5052434;28;20465;-86
2022/05/15 14:06:46;;;;;;;2.77;1.93;;;;;;;;;;5034610;28;20837;-86
2022/05/15 14:09:14;;;;;;;2.53;1.70;;;;;;;;;;5052384;28;20451;-87
2022/05/15 14:12:00;;;;;;;2.42;1.85;;;;;;;;;;5043971;28;20857;-87
2022/05/15 14:14:44;;;;;;;2.70;1.85;;;;;;;;;;5032494;28;20372;-86
2022/05/15 14:17:11;;;;;;;2.42;1.90;;;;;;;;;;5032691;28;20375;-86
2022/05/15 14:19:53;;;;;;;5.68;1.83;;;;;;;;;;5014723;28;20753;-87
2022/05/15 14:22:19;;;;;;;2.67;2.00;;;;;;;;;;5032407;28;20391;-86
2022/05/15 14:24:45;;;;;;;2.33;1.70;;;;;;;;;;5032448;28;20578;-87
2022/05/15 14:27:11;;;;;;;4.97;1.80;;;;;;;;;;5032194;28;20390;-87
2022/05/15 14:29:39;;;;;;;3.17;1.80;;;;;;;;;;5031900;28;20434;-87
2022/05/15 14:32:06;;;;;;;2.03;1.83;;;;;;;;;;5032865;28;20795;-87
2022/05/15 14:34:32;;;;;;;2.95;1.70;;;;;;;;;;5033037;28;20379;-88
2022/05/15 14:36:58;;;;;;;2.53;1.53;;;;;;;;;;5032360;28;20458;-87
2022/05/15 14:39:24;;;;;;;2.30;1.93;;;;;;;;;;5032590;28;20395;-87
2022/05/15 14:41:50;;;;;;;2.20;1.80;;;;;;;;;;5043456;28;20412;-86
2022/05/15 14:44:16;;;;;;;2.30;1.80;;;;;;;;;;5051953;28;20389;-87
2022/05/15 14:46:43;;;;;;;2.17;1.52;;;;;;;;;;5039947;28;20883;-87
2022/05/15 14:49:10;;;;;;;4.05;1.73;;;;;;;;;;5032117;28;20453;-86
2022/05/15 14:51:38;;;;;;;2.40;1.80;;;;;;;;;;5032547;28;20375;-86
2022/05/15 14:54:05;;;;;;;3.00;1.77;;;;;;;;;;5032271;28;20390;-87
2022/05/15 14:56:33;;;;;;;3.67;1.80;;;;;;;;;;5032169;28;20379;-88
2022/05/15 14:59:00;;;;;;;2.10;1.60;;;;;;;;;;5032226;28;20431;-87
2022/05/15 15:01:27;;;;;;;2.75;1.65;;;;;;;;;;5031938;28;20849;-87
2022/05/15 15:03:53;;;;;;;1.85;1.70;;;;;;;;;;5031982;28;20393;-87
2022/05/15 15:06:19;;;;;;;2.93;1.53;;;;;;;;;;5032154;28;20849;-87
2022/05/15 15:08:45;;;;;;;2.60;1.70;;;;;;;;;;5032441;28;20414;-87
2022/05/15 15:11:25;;;;;;;2.08;1.70;;;;;;;;;;5032024;28;20375;-87
2022/05/15 15:13:52;;;;;;;2.38;1.83;;;;;;;;;;5032177;28;20473;-87
2022/05/15 15:16:20;;;;;;;2.30;1.80;;;;;;;;;;5032002;28;20383;-87
2022/05/15 15:18:46;;;;;;;2.27;1.80;;;;;;;;;;5031905;28;20383;-86
2022/05/15 15:21:12;;;;;;;2.92;1.52;;;;;;;;;;5031249;28;20378;-87